Time;durP1;ratioP1;P1;durP2;ratioP2;P2;SDS_P1;SDS_P2;PMS_P1;PMS_P2;Temp;Humidity;BMP_temperature;BMP_pressure;BME280_temperature;BME280_humidity;BME280_pressure;Samples;Min_cycle;Max_cycle;Signal;HPM_P1;HPM_P2
2023/03/12 00:00:46;;;;;;;7.30;2.70;;;2.30;99.90;;;;;;5113832;28;20193;-51
2023/03/12 00:03:12;;;;;;;6.22;2.42;;;2.10;99.90;;;;;;5113683;28;20232;-52
2023/03/12 00:05:39;;;;;;;10.32;3.20;;;2.00;99.90;;;;;;5095261;28;20202;-51
2023/03/12 00:08:06;;;;;;;4.07;2.53;;;2.00;99.90;;;;;;5113478;28;20208;-52
2023/03/12 00:10:33;;;;;;;5.38;2.65;;;2.10;99.90;;;;;;5113644;28;20209;-52
2023/03/12 00:13:00;;;;;;;4.57;2.35;;;2.20;99.90;;;;;;5113525;28;20224;-51
2023/03/12 00:15:28;;;;;;;6.25;2.75;;;2.10;99.90;;;;;;5095703;28;20205;-51
2023/03/12 00:17:54;;;;;;;11.88;2.55;;;2.40;99.90;;;;;;5114060;28;20202;-52
2023/03/12 00:20:22;;;;;;;4.63;2.55;;;2.20;99.90;;;;;;5113396;28;20198;-51
2023/03/12 00:22:49;;;;;;;6.40;2.35;;;2.30;99.90;;;;;;5113170;28;20229;-52
2023/03/12 00:25:16;;;;;;;7.22;2.70;;;2.20;99.90;;;;;;5113568;28;20197;-52
2023/03/12 00:27:43;;;;;;;6.80;2.47;;;2.40;99.90;;;;;;5113364;28;20201;-51
2023/03/12 00:30:12;;;;;;;7.03;2.40;;;2.10;99.90;;;;;;5094750;28;20201;-52
2023/03/12 00:32:40;;;;;;;5.20;3.55;;;2.20;99.90;;;;;;5112991;28;20316;-50
2023/03/12 00:35:07;;;;;;;3.45;2.38;;;2.20;99.90;;;;;;5094958;28;20210;-51
2023/03/12 00:37:35;;;;;;;6.15;2.80;;;2.10;99.90;;;;;;5094911;28;20301;-52
2023/03/12 00:40:04;;;;;;;4.47;2.60;;;1.80;99.90;;;;;;5111643;28;20232;-52
2023/03/12 00:42:31;;;;;;;6.75;2.25;;;2.30;99.90;;;;;;5113139;28;20206;-50
2023/03/12 00:44:58;;;;;;;3.75;2.70;;;1.60;99.90;;;;;;5111600;28;20755;-52
2023/03/12 00:47:25;;;;;;;4.80;2.45;;;2.00;99.90;;;;;;5112998;28;20190;-50
2023/03/12 00:49:53;;;;;;;4.57;2.40;;;1.60;99.90;;;;;;5094546;28;20198;-50
2023/03/12 00:52:20;;;;;;;5.53;2.72;;;1.70;99.90;;;;;;5094761;28;20205;-51
2023/03/12 00:54:46;;;;;;;8.63;3.33;;;2.20;99.90;;;;;;5094921;28;20555;-51
2023/03/12 00:57:13;;;;;;;8.70;3.00;;;2.30;99.90;;;;;;5094582;28;20194;-51
2023/03/12 00:59:41;;;;;;;4.47;2.53;;;2.10;99.90;;;;;;5112562;28;20280;-51
2023/03/12 01:02:08;;;;;;;5.65;2.85;;;2.50;99.90;;;;;;5094231;28;20270;-51
2023/03/12 01:04:35;;;;;;;4.25;2.45;;;2.30;99.90;;;;;;5111225;28;20224;-51
2023/03/12 01:07:03;;;;;;;7.03;2.50;;;2.50;99.90;;;;;;5112607;28;20194;-51
2023/03/12 01:09:29;;;;;;;7.90;2.80;;;2.50;99.90;;;;;;5112612;28;20202;-51
2023/03/12 01:11:56;;;;;;;4.90;2.40;;;2.30;99.90;;;;;;5112591;28;20201;-52
2023/03/12 01:14:23;;;;;;;4.85;3.05;;;2.80;99.90;;;;;;5094385;28;20225;-51
2023/03/12 01:16:49;;;;;;;6.93;2.72;;;2.80;99.90;;;;;;5094447;28;20301;-51
2023/03/12 01:19:16;;;;;;;5.45;2.47;;;2.80;99.90;;;;;;5112145;28;20190;-51
2023/03/12 01:21:42;;;;;;;8.77;3.33;;;2.90;99.90;;;;;;5094356;28;20646;-50
2023/03/12 01:24:11;;;;;;;5.50;2.45;;;2.70;99.90;;;;;;5094333;28;20776;-51
2023/03/12 01:26:37;;;;;;;5.80;3.15;;;2.60;99.90;;;;;;5094161;28;20587;-52
2023/03/12 01:29:04;;;;;;;7.07;3.42;;;2.80;99.90;;;;;;5112066;28;20205;-50
2023/03/12 01:31:31;;;;;;;5.78;3.00;;;2.40;99.90;;;;;;5112564;28;20213;-51
2023/03/12 01:33:58;;;;;;;4.28;2.53;;;2.70;99.90;;;;;;5093946;28;20242;-51
2023/03/12 01:36:27;;;;;;;6.78;2.58;;;2.50;99.90;;;;;;5094150;28;20202;-51
2023/03/12 01:38:55;;;;;;;6.07;2.75;;;2.50;99.90;;;;;;5111957;28;20194;-52
2023/03/12 01:41:24;;;;;;;6.60;3.28;;;2.70;99.90;;;;;;5093914;28;20197;-51
2023/03/12 01:43:51;;;;;;;6.70;2.65;;;2.90;99.90;;;;;;5112231;28;20237;-51
2023/03/12 01:46:37;;;;;;;7.43;3.60;;;2.70;99.90;;;;;;5093853;28;20193;-50
2023/03/12 01:49:11;;;;;;;5.60;3.15;;;2.60;99.90;;;;;;5093820;28;20376;-50
2023/03/12 01:51:42;;;;;;;6.13;2.50;;;2.70;99.90;;;;;;5093860;28;20552;-52
2023/03/12 01:54:13;;;;;;;7.10;2.85;;;2.10;99.90;;;;;;5110754;28;20247;-52
2023/03/12 01:56:42;;;;;;;6.22;2.72;;;2.70;99.90;;;;;;5112134;28;20281;-52
2023/03/12 01:59:13;;;;;;;4.78;2.50;;;2.30;99.90;;;;;;5093544;28;20258;-52
2023/03/12 02:01:45;;;;;;;5.22;2.75;;;2.50;99.90;;;;;;5093694;28;20225;-52
2023/03/12 02:04:13;;;;;;;6.63;3.00;;;3.20;99.90;;;;;;5110949;28;20218;-52
2023/03/12 02:06:48;;;;;;;6.93;2.92;;;3.20;99.90;;;;;;5112081;28;20684;-52
2023/03/12 02:09:15;;;;;;;6.70;2.97;;;3.00;99.90;;;;;;5110378;28;20476;-50
2023/03/12 02:11:43;;;;;;;6.00;3.15;;;2.90;99.90;;;;;;5093764;28;20669;-53
2023/03/12 02:14:10;;;;;;;9.57;3.45;;;3.20;99.90;;;;;;5095734;28;20229;-51
2023/03/12 02:16:36;;;;;;;5.10;2.58;;;3.70;99.90;;;;;;5116079;28;20277;-51
2023/03/12 02:19:06;;;;;;;5.68;3.00;;;3.30;99.90;;;;;;5115426;28;20206;-51
2023/03/12 02:21:36;;;;;;;5.88;2.78;;;2.70;99.90;;;;;;5097524;28;20209;-51
2023/03/12 02:24:09;;;;;;;4.13;2.90;;;2.90;99.90;;;;;;5115354;28;20585;-51
2023/03/12 02:26:38;;;;;;;4.78;2.55;;;3.30;99.90;;;;;;5114356;28;20198;-51
2023/03/12 02:29:06;;;;;;;5.03;2.67;;;3.20;99.90;;;;;;5096953;28;20251;-51
2023/03/12 02:31:40;;;;;;;3.65;2.65;;;2.90;99.90;;;;;;5114245;28;20259;-51
2023/03/12 02:34:07;;;;;;;6.13;2.75;;;3.10;99.90;;;;;;5114265;28;20209;-51
2023/03/12 02:36:36;;;;;;;6.25;2.95;;;3.10;99.90;;;;;;5097411;28;20202;-51
2023/03/12 02:39:03;;;;;;;6.93;2.90;;;2.60;99.90;;;;;;5096806;28;20226;-51
2023/03/12 02:41:32;;;;;;;5.05;3.00;;;2.90;99.90;;;;;;5115367;28;20202;-51
2023/03/12 02:44:03;;;;;;;7.97;3.10;;;2.10;99.90;;;;;;5097006;28;20674;-52
2023/03/12 02:46:33;;;;;;;6.28;2.90;;;2.40;99.90;;;;;;5115380;28;20205;-51
2023/03/12 02:49:00;;;;;;;7.18;2.88;;;2.40;99.90;;;;;;5114981;28;20205;-51
2023/03/12 02:51:27;;;;;;;5.93;3.22;;;2.40;99.90;;;;;;5115231;28;20205;-51
2023/03/12 02:53:54;;;;;;;7.65;3.80;;;2.50;99.90;;;;;;5096879;28;20278;-51
2023/03/12 02:56:22;;;;;;;6.63;3.17;;;1.80;99.90;;;;;;5097145;28;20218;-52
2023/03/12 02:58:49;;;;;;;6.35;2.95;;;2.30;99.90;;;;;;5113906;28;20265;-52
2023/03/12 03:01:18;;;;;;;6.07;2.63;;;2.10;99.90;;;;;;5097180;28;20190;-51
2023/03/12 03:03:45;;;;;;;6.63;3.10;;;2.10;99.90;;;;;;5114785;28;20217;-50
2023/03/12 03:06:11;;;;;;;5.85;3.10;;;2.20;99.90;;;;;;5115846;28;20263;-51
2023/03/12 03:08:38;;;;;;;4.25;2.88;;;2.10;99.90;;;;;;5097373;28;20262;-50
2023/03/12 03:11:05;;;;;;;7.30;3.60;;;2.10;99.90;;;;;;5116047;28;20202;-51
2023/03/12 03:13:33;;;;;;;10.20;4.05;;;2.20;99.90;;;;;;5097921;28;20642;-51
2023/03/12 03:16:00;;;;;;;4.80;3.03;;;2.30;99.90;;;;;;5097631;28;20206;-52
2023/03/12 03:18:30;;;;;;;9.25;3.15;;;2.10;99.90;;;;;;5115136;28;20646;-51
2023/03/12 03:20:57;;;;;;;6.13;3.05;;;1.50;99.90;;;;;;5097068;28;20198;-51
2023/03/12 03:23:24;;;;;;;4.40;2.65;;;2.10;99.90;;;;;;5097006;28;20268;-51
2023/03/12 03:25:51;;;;;;;12.68;4.47;;;2.10;99.90;;;;;;5095853;28;20973;-51
2023/03/12 03:28:19;;;;;;;6.05;3.35;;;2.10;99.90;;;;;;5114492;28;20662;-52
2023/03/12 03:30:45;;;;;;;6.43;3.28;;;2.10;99.90;;;;;;5114484;28;20204;-51
2023/03/12 03:33:12;;;;;;;4.60;2.97;;;2.00;99.90;;;;;;5096242;28;20214;-51
2023/03/12 03:35:41;;;;;;;7.13;3.70;;;2.20;99.90;;;;;;5096546;28;20217;-51
2023/03/12 03:38:08;;;;;;;6.10;3.10;;;2.20;99.90;;;;;;5095962;28;20202;-51
2023/03/12 03:40:35;;;;;;;4.93;3.33;;;1.80;99.90;;;;;;5114482;28;20194;-51
2023/03/12 03:43:01;;;;;;;7.80;3.60;;;1.50;99.90;;;;;;5114419;28;20206;-50
2023/03/12 03:45:28;;;;;;;5.40;3.08;;;1.90;99.90;;;;;;5096049;28;20230;-51
2023/03/12 03:47:55;;;;;;;11.35;4.15;;;1.90;99.90;;;;;;5096165;28;20266;-51
2023/03/12 03:50:22;;;;;;;7.20;3.63;;;1.90;99.90;;;;;;5095647;28;20222;-50
2023/03/12 03:52:50;;;;;;;8.52;3.33;;;1.80;99.90;;;;;;5095672;28;20224;-52
2023/03/12 03:55:17;;;;;;;6.10;3.63;;;2.00;99.90;;;;;;5095652;28;20202;-51
2023/03/12 03:57:44;;;;;;;10.20;3.60;;;1.80;99.90;;;;;;5095521;28;20552;-52
2023/03/12 04:00:14;;;;;;;12.40;3.83;;;1.90;99.90;;;;;;5095321;28;20262;-51
2023/03/12 04:02:41;;;;;;;4.03;3.25;;;1.80;99.90;;;;;;5095736;28;20276;-51
2023/03/12 04:05:11;;;;;;;7.22;2.95;;;1.90;99.90;;;;;;5095401;28;20226;-51
2023/03/12 04:07:38;;;;;;;6.68;3.08;;;1.80;99.90;;;;;;5095504;28;20250;-50
2023/03/12 04:10:08;;;;;;;3.85;2.85;;;1.10;99.90;;;;;;5095013;28;20194;-51
2023/03/12 04:12:35;;;;;;;9.68;3.60;;;1.60;99.90;;;;;;5095386;28;20224;-51
2023/03/12 04:15:02;;;;;;;5.68;3.58;;;1.70;99.90;;;;;;5095359;28;20194;-50
2023/03/12 04:17:29;;;;;;;5.50;3.22;;;1.70;99.90;;;;;;5095253;28;20225;-51
2023/03/12 04:19:57;;;;;;;6.28;2.90;;;1.60;99.90;;;;;;5095019;28;20243;-50
2023/03/12 04:22:24;;;;;;;8.48;3.42;;;1.70;99.90;;;;;;5094828;28;20673;-51
2023/03/12 04:24:51;;;;;;;6.65;3.38;;;1.10;99.90;;;;;;5095128;28;20221;-51
2023/03/12 04:27:19;;;;;;;5.10;3.17;;;1.60;99.90;;;;;;5113473;28;20577;-50
2023/03/12 04:29:46;;;;;;;5.45;3.10;;;1.70;99.90;;;;;;5112987;28;20198;-51
2023/03/12 04:32:13;;;;;;;9.48;3.45;;;1.60;99.90;;;;;;5095198;28;20562;-51
2023/03/12 04:34:39;;;;;;;8.30;3.95;;;1.70;99.90;;;;;;5113145;28;20205;-52
2023/03/12 04:37:07;;;;;;;5.80;3.80;;;1.40;99.90;;;;;;5094579;28;20225;-51
2023/03/12 04:39:34;;;;;;;6.20;4.85;;;1.60;99.90;;;;;;5094822;28;20285;-52
2023/03/12 04:42:00;;;;;;;7.28;4.03;;;1.90;99.90;;;;;;5113185;28;20193;-52
2023/03/12 04:44:28;;;;;;;11.05;4.55;;;1.50;99.90;;;;;;5094662;28;20322;-51
2023/03/12 04:46:55;;;;;;;7.05;4.20;;;1.60;99.90;;;;;;5113135;28;20225;-51
2023/03/12 04:49:25;;;;;;;5.57;4.50;;;1.10;99.90;;;;;;5094546;28;20288;-51
2023/03/12 04:51:52;;;;;;;9.00;4.90;;;1.30;99.90;;;;;;5094647;28;20610;-52
2023/03/12 04:54:21;;;;;;;6.03;4.90;;;1.50;99.90;;;;;;5094800;28;20229;-52
2023/03/12 04:56:48;;;;;;;8.48;4.55;;;1.40;99.90;;;;;;5094571;28;20236;-50
2023/03/12 04:59:15;;;;;;;11.63;5.20;;;1.60;99.90;;;;;;5111335;28;20194;-50
2023/03/12 05:01:44;;;;;;;6.70;4.93;;;1.50;99.90;;;;;;5094450;28;20208;-51
2023/03/12 05:04:17;;;;;;;9.10;6.10;;;1.50;99.90;;;;;;5094341;28;20311;-51
2023/03/12 05:06:44;;;;;;;13.82;6.03;;;1.60;99.90;;;;;;5094493;28;20194;-51
2023/03/12 05:09:11;;;;;;;5.78;4.70;;;1.60;99.90;;;;;;5094132;28;20212;-51
2023/03/12 05:11:37;;;;;;;8.95;5.30;;;1.40;99.90;;;;;;5094402;28;20205;-51
2023/03/12 05:14:04;;;;;;;6.15;5.05;;;1.40;99.90;;;;;;5094689;28;20707;-50
2023/03/12 05:16:31;;;;;;;14.55;6.25;;;1.60;99.90;;;;;;5094508;28;20202;-51
2023/03/12 05:19:01;;;;;;;8.98;5.28;;;1.60;99.90;;;;;;5093803;28;20198;-50
2023/03/12 05:21:28;;;;;;;9.20;5.90;;;1.00;99.90;;;;;;5094251;28;20295;-51
2023/03/12 05:23:56;;;;;;;8.75;5.93;;;1.50;99.90;;;;;;5094758;28;20225;-51
2023/03/12 05:26:28;;;;;;;16.58;6.53;;;0.70;99.90;;;;;;5094098;28;20231;-50
2023/03/12 05:29:02;;;;;;;8.82;5.55;;;1.60;99.90;;;;;;5093956;28;20208;-51
2023/03/12 05:31:33;;;;;;;9.32;6.00;;;1.40;99.90;;;;;;5094087;28;20197;-51
2023/03/12 05:34:02;;;;;;;15.82;6.35;;;1.50;99.90;;;;;;5094035;28;20217;-51
2023/03/12 05:36:29;;;;;;;11.25;6.32;;;1.40;99.90;;;;;;5094119;28;20189;-51
2023/03/12 05:38:56;;;;;;;9.63;5.68;;;1.50;99.90;;;;;;5093703;28;20194;-50
2023/03/12 05:41:27;;;;;;;7.82;5.97;;;1.50;99.90;;;;;;5093903;28;20201;-51
2023/03/12 05:43:58;;;;;;;7.78;5.93;;;1.40;99.90;;;;;;5112261;28;20210;-51
2023/03/12 05:46:26;;;;;;;8.85;6.55;;;1.60;99.90;;;;;;5093991;28;20763;-51
2023/03/12 05:48:53;;;;;;;9.73;6.45;;;1.70;99.90;;;;;;5095520;28;20590;-51
2023/03/12 05:51:21;;;;;;;15.80;6.05;;;1.50;99.90;;;;;;5098380;28;20246;-50
2023/03/12 05:53:48;;;;;;;11.40;6.18;;;1.60;99.90;;;;;;5115052;28;20233;-50
2023/03/12 05:56:17;;;;;;;10.88;6.30;;;1.00;99.90;;;;;;5116259;28;20216;-50
2023/03/12 05:58:44;;;;;;;14.50;5.85;;;1.60;99.90;;;;;;5097542;28;20302;-51
2023/03/12 06:01:12;;;;;;;13.60;5.75;;;1.40;99.90;;;;;;5114845;28;20211;-50
2023/03/12 06:03:39;;;;;;;10.20;6.25;;;1.60;99.90;;;;;;5097577;28;20221;-50
2023/03/12 06:06:06;;;;;;;12.18;6.03;;;1.50;99.90;;;;;;5097639;28;20221;-51
2023/03/12 06:08:34;;;;;;;9.82;6.35;;;1.10;99.90;;;;;;5097446;28;20241;-51
2023/03/12 06:11:00;;;;;;;9.02;4.93;;;1.50;99.90;;;;;;5098005;28;20564;-51
2023/03/12 06:13:28;;;;;;;7.53;5.60;;;1.70;99.90;;;;;;5097491;28;20214;-52
2023/03/12 06:16:03;;;;;;;9.18;5.05;;;1.40;99.90;;;;;;5097541;28;20251;-50
2023/03/12 06:18:30;;;;;;;7.72;5.18;;;1.80;99.90;;;;;;5114197;28;20198;-49
2023/03/12 06:21:08;;;;;;;8.63;4.75;;;1.50;99.90;;;;;;5114453;28;20197;-51
2023/03/12 06:23:36;;;;;;;9.90;5.60;;;1.90;99.90;;;;;;5097428;28;20222;-50
2023/03/12 06:26:03;;;;;;;7.43;4.95;;;1.80;99.90;;;;;;5097582;28;20568;-50
2023/03/12 06:28:29;;;;;;;8.32;6.07;;;2.00;99.90;;;;;;5096853;28;20233;-51
2023/03/12 06:30:56;;;;;;;11.18;5.00;;;2.20;99.90;;;;;;5115596;28;20666;-50
2023/03/12 06:33:23;;;;;;;8.05;4.93;;;2.10;99.90;;;;;;5115271;28;20218;-51
2023/03/12 06:35:53;;;;;;;10.93;6.43;;;2.30;99.90;;;;;;5097239;28;20678;-51
2023/03/12 06:38:20;;;;;;;8.02;6.07;;;2.20;99.90;;;;;;5115446;28;20197;-51
2023/03/12 06:40:55;;;;;;;13.30;5.60;;;2.40;99.90;;;;;;5115382;28;20197;-50
2023/03/12 06:43:22;;;;;;;10.38;5.90;;;2.40;99.90;;;;;;5115246;28;20789;-50
2023/03/12 06:45:49;;;;;;;8.05;4.53;;;1.90;99.90;;;;;;5115525;28;20572;-50
2023/03/12 06:48:16;;;;;;;7.80;4.55;;;2.30;99.90;;;;;;5114847;28;20198;-51
2023/03/12 06:50:42;;;;;;;6.22;4.43;;;2.50;99.90;;;;;;5115318;28;20196;-51
2023/03/12 06:53:09;;;;;;;7.20;5.20;;;2.80;99.90;;;;;;5115267;28;20577;-50
2023/03/12 06:55:36;;;;;;;7.10;4.30;;;2.50;99.90;;;;;;5115352;28;20561;-51
2023/03/12 06:58:04;;;;;;;6.93;4.35;;;2.80;99.90;;;;;;5115129;28;20217;-50
2023/03/12 07:00:31;;;;;;;7.28;4.85;;;2.50;99.90;;;;;;5114750;28;20212;-50
2023/03/12 07:02:58;;;;;;;5.82;4.22;;;2.70;99.90;;;;;;5114739;28;20221;-51
2023/03/12 07:05:25;;;;;;;5.47;3.95;;;2.70;99.90;;;;;;5114860;28;20229;-50
2023/03/12 07:07:52;;;;;;;6.93;5.35;;;2.20;99.90;;;;;;5114752;28;20272;-50
2023/03/12 07:10:18;;;;;;;11.52;5.00;;;2.90;99.90;;;;;;5114573;28;20662;-50
2023/03/12 07:12:45;;;;;;;7.60;5.55;;;2.80;99.90;;;;;;5114770;28;20755;-51
2023/03/12 07:15:14;;;;;;;7.90;4.75;;;2.90;99.90;;;;;;5114983;28;20202;-50
2023/03/12 07:17:41;;;;;;;10.38;4.35;;;3.10;99.90;;;;;;5114748;28;20193;-51
2023/03/12 07:20:09;;;;;;;11.13;5.05;;;3.10;99.90;;;;;;5114510;28;20202;-49
2023/03/12 07:22:36;;;;;;;7.97;4.60;;;3.40;99.90;;;;;;5114686;28;20206;-50
2023/03/12 07:25:02;;;;;;;12.00;5.20;;;2.90;99.90;;;;;;5114937;28;20201;-50
2023/03/12 07:27:30;;;;;;;8.20;4.60;;;3.30;99.90;;;;;;5114722;28;20560;-51
2023/03/12 07:29:56;;;;;;;10.57;6.07;;;3.50;99.90;;;;;;5095791;28;20201;-52
2023/03/12 07:32:24;;;;;;;9.25;4.85;;;3.40;99.90;;;;;;5114838;28;20194;-51
2023/03/12 07:34:51;;;;;;;10.23;5.30;;;3.50;99.90;;;;;;5114648;28;20278;-50
2023/03/12 07:37:18;;;;;;;10.10;5.70;;;2.80;99.90;;;;;;5114313;28;20190;-51
2023/03/12 07:39:46;;;;;;;18.50;6.30;;;3.60;99.90;;;;;;5095641;28;20671;-49
2023/03/12 07:42:13;;;;;;;12.00;6.70;;;3.50;99.90;;;;;;5114279;28;20198;-50
2023/03/12 07:44:41;;;;;;;11.50;6.18;;;3.40;99.90;;;;;;5114109;28;20210;-51
2023/03/12 07:47:08;;;;;;;8.90;4.80;;;3.70;99.90;;;;;;5113900;28;20240;-50
2023/03/12 07:49:35;;;;;;;10.50;4.45;;;2.90;99.90;;;;;;5113449;28;20198;-51
2023/03/12 07:52:03;;;;;;;9.20;4.32;;;3.40;99.90;;;;;;5113946;28;20202;-51
2023/03/12 07:54:30;;;;;;;6.40;3.83;;;3.60;99.90;;;;;;5113652;28;20713;-51
2023/03/12 07:56:57;;;;;;;11.48;4.55;;;3.50;99.90;;;;;;5114072;28;20193;-52
2023/03/12 07:59:25;;;;;;;8.07;4.07;;;3.50;99.90;;;;;;5113534;28;20213;-51
2023/03/12 08:01:52;;;;;;;5.25;3.88;;;3.50;99.90;;;;;;5114095;28;20284;-52
2023/03/12 08:04:18;;;;;;;7.13;4.30;;;3.70;99.90;;;;;;5113917;28;20221;-50
2023/03/12 08:06:47;;;;;;;7.82;4.20;;;3.60;99.90;;;;;;5095126;28;20274;-52
2023/03/12 08:09:13;;;;;;;8.65;4.15;;;3.60;99.90;;;;;;5113302;28;20205;-52
2023/03/12 08:11:40;;;;;;;8.15;4.20;;;3.80;99.90;;;;;;5113092;28;20194;-52
2023/03/12 08:14:07;;;;;;;5.15;4.50;;;3.70;99.90;;;;;;5113478;28;20244;-51
2023/03/12 08:16:33;;;;;;;8.82;4.65;;;3.30;99.90;;;;;;5113385;28;20739;-51
2023/03/12 08:19:00;;;;;;;4.55;3.85;;;3.40;99.90;;;;;;5113587;28;20201;-51
2023/03/12 08:21:27;;;;;;;8.70;4.78;;;4.00;99.90;;;;;;5113478;28;20193;-52
2023/03/12 08:23:55;;;;;;;9.50;4.60;;;3.90;99.90;;;;;;5113609;28;20698;-50
2023/03/12 08:26:21;;;;;;;10.50;4.95;;;4.00;99.90;;;;;;5113661;28;20210;-51
2023/03/12 08:28:48;;;;;;;12.68;4.10;;;3.90;99.90;;;;;;5113516;28;20197;-52
2023/03/12 08:31:15;;;;;;;10.07;3.75;;;4.10;99.90;;;;;;5113928;28;20225;-52
2023/03/12 08:33:42;;;;;;;12.60;5.38;;;3.90;99.90;;;;;;5113260;28;20702;-51
2023/03/12 08:36:09;;;;;;;6.28;3.75;;;4.00;99.90;;;;;;5113536;28;20189;-52
2023/03/12 08:38:35;;;;;;;11.02;3.95;;;4.00;99.90;;;;;;5113023;28;20194;-51
2023/03/12 08:41:03;;;;;;;9.70;3.90;;;4.20;99.90;;;;;;5113316;28;20194;-52
2023/03/12 08:43:30;;;;;;;6.68;3.38;;;4.10;99.90;;;;;;5113280;28;20221;-53
2023/03/12 08:45:59;;;;;;;6.78;4.05;;;4.20;99.90;;;;;;5112749;28;20210;-50
2023/03/12 08:48:26;;;;;;;8.98;4.05;;;4.60;99.90;;;;;;5111555;28;20194;-51
2023/03/12 08:50:55;;;;;;;7.10;4.10;;;4.60;99.90;;;;;;5112958;28;20209;-51
2023/03/12 08:53:21;;;;;;;10.80;4.10;;;4.60;99.90;;;;;;5112787;28;20209;-52
2023/03/12 08:55:48;;;;;;;5.65;2.90;;;4.80;99.90;;;;;;5112938;28;20230;-49
2023/03/12 08:58:16;;;;;;;12.88;4.03;;;4.80;99.90;;;;;;5094020;28;20205;-52
2023/03/12 09:00:43;;;;;;;4.32;2.83;;;4.70;99.90;;;;;;5112831;28;20212;-52
2023/03/12 09:03:12;;;;;;;4.95;3.80;;;4.90;99.90;;;;;;5113224;28;20225;-51
2023/03/12 09:05:39;;;;;;;6.25;3.08;;;4.70;99.90;;;;;;5112765;28;20197;-52
2023/03/12 09:08:06;;;;;;;4.60;3.13;;;4.80;99.90;;;;;;5112264;28;20190;-51
2023/03/12 09:10:33;;;;;;;6.60;3.88;;;4.80;99.90;;;;;;5094374;28;20205;-51
2023/03/12 09:13:00;;;;;;;7.78;3.08;;;4.70;99.90;;;;;;5112327;28;20213;-52
2023/03/12 09:15:28;;;;;;;6.75;3.00;;;5.00;99.90;;;;;;5112360;28;20216;-51
2023/03/12 09:17:55;;;;;;;7.78;3.67;;;4.90;99.90;;;;;;5112346;28;20189;-51
2023/03/12 09:20:22;;;;;;;16.30;4.00;;;4.90;99.90;;;;;;5112048;28;20214;-52
2023/03/12 09:22:49;;;;;;;5.07;2.50;;;5.10;99.90;;;;;;5112169;28;20569;-52
2023/03/12 09:25:19;;;;;;;10.43;3.42;;;5.20;99.90;;;;;;5112442;28;20666;-51
2023/03/12 09:27:48;;;;;;;6.53;3.10;;;5.40;99.90;;;;;;5112214;28;20229;-51
2023/03/12 09:30:17;;;;;;;6.47;2.23;;;5.30;99.90;;;;;;5112119;28;20202;-53
2023/03/12 09:32:45;;;;;;;6.85;2.85;;;5.70;99.90;;;;;;5112348;28;21048;-52
2023/03/12 09:35:13;;;;;;;4.47;2.40;;;5.60;99.90;;;;;;5112186;28;20201;-51
2023/03/12 09:37:40;;;;;;;4.17;1.80;;;6.00;99.90;;;;;;5112081;28;20488;-51
2023/03/12 09:40:12;;;;;;;4.20;2.08;;;6.00;99.90;;;;;;5111908;28;20431;-51
2023/03/12 09:42:42;;;;;;;8.30;3.10;;;5.80;99.90;;;;;;5112121;28;20717;-52
2023/03/12 09:45:15;;;;;;;6.27;2.03;;;6.20;99.90;;;;;;5093541;28;20411;-51
2023/03/12 09:47:49;;;;;;;6.40;2.50;;;6.10;99.90;;;;;;5111855;28;20472;-52
2023/03/12 09:50:22;;;;;;;4.03;2.10;;;6.40;99.90;;;;;;5111909;28;20413;-51
2023/03/12 09:52:55;;;;;;;11.77;3.17;;;6.30;99.90;;;;;;5111989;28;20427;-51
2023/03/12 09:55:22;;;;;;;5.07;2.67;;;6.30;99.90;;;;;;5112124;28;20415;-51
2023/03/12 09:57:51;;;;;;;8.30;3.47;;;6.60;99.90;;;;;;5111865;28;20425;-52
2023/03/12 10:00:21;;;;;;;8.73;2.90;;;6.60;99.90;;;;;;5111369;28;20451;-51
2023/03/12 10:03:18;;;;;;;5.43;2.47;;;7.10;99.90;;;;;;5111953;28;20447;-52
2023/03/12 10:05:47;;;;;;;6.70;2.43;;;6.80;99.70;;;;;;5112069;28;20408;-50
2023/03/12 10:08:19;;;;;;;5.53;2.80;;;6.90;99.80;;;;;;5111553;28;20455;-51
2023/03/12 10:10:53;;;;;;;6.37;3.57;;;7.10;99.90;;;;;;5111998;28;20417;-51
2023/03/12 10:13:47;;;;;;;4.90;2.73;;;7.10;99.00;;;;;;5111924;28;20430;-52
2023/03/12 10:16:25;;;;;;;5.83;2.80;;;7.40;99.70;;;;;;5111936;28;20429;-52
2023/03/12 10:19:05;;;;;;;3.97;2.50;;;7.30;99.20;;;;;;5111610;28;20438;-51
2023/03/12 10:21:41;;;;;;;7.60;3.50;;;7.40;99.40;;;;;;5111861;28;20503;-51
2023/03/12 10:24:21;;;;;;;7.10;3.27;;;7.60;99.20;;;;;;5111742;28;20467;-51
2023/03/12 10:26:50;;;;;;;7.83;2.73;;;7.30;98.80;;;;;;5111614;28;20455;-51
2023/03/12 10:29:20;;;;;;;5.40;2.60;;;7.70;99.40;;;;;;5111329;28;20413;-51
2023/03/12 10:31:54;;;;;;;10.53;3.57;;;7.70;98.50;;;;;;5111654;28;20437;-52
2023/03/12 10:34:38;;;;;;;4.70;2.83;;;7.70;97.80;;;;;;5112354;28;20428;-50
2023/03/12 10:37:12;;;;;;;6.97;2.40;;;7.50;98.10;;;;;;5115401;28;20972;-52
2023/03/12 10:39:40;;;;;;;5.70;2.63;;;7.60;98.00;;;;;;5096454;28;20426;-52
2023/03/12 10:42:15;;;;;;;4.90;2.37;;;7.50;97.20;;;;;;5115561;28;20444;-52
2023/03/12 10:44:42;;;;;;;9.70;2.47;;;7.50;97.10;;;;;;5113738;28;20442;-52
2023/03/12 10:47:23;;;;;;;4.60;2.60;;;7.50;97.10;;;;;;5115437;28;20457;-52
2023/03/12 10:49:52;;;;;;;6.10;2.57;;;7.40;97.20;;;;;;5114846;28;20399;-53
2023/03/12 10:52:20;;;;;;;7.63;2.57;;;7.60;97.20;;;;;;5115102;28;20438;-52
2023/03/12 10:54:50;;;;;;;5.50;2.37;;;7.50;97.60;;;;;;5114979;28;20428;-52
2023/03/12 10:57:17;;;;;;;6.47;3.03;;;7.50;97.50;;;;;;5113619;28;20429;-51
2023/03/12 10:59:46;;;;;;;6.13;3.60;;;7.60;97.10;;;;;;5114923;28;20957;-51
2023/03/12 11:02:30;;;;;;;6.77;2.70;;;7.80;97.40;;;;;;5114966;28;20830;-52
2023/03/12 11:05:00;;;;;;;6.50;2.10;;;7.70;97.00;;;;;;5114790;28;20432;-51
2023/03/12 11:07:29;;;;;;;4.73;1.77;;;7.80;96.50;;;;;;5114752;28;20457;-52
2023/03/12 11:10:18;;;;;;;5.67;2.00;;;7.70;96.40;;;;;;5114393;28;20887;-52
2023/03/12 11:13:00;;;;;;;8.07;3.27;;;8.20;96.40;;;;;;5115121;28;20844;-51
2023/03/12 11:15:38;;;;;;;4.57;2.40;;;8.00;95.00;;;;;;5114325;28;20401;-51
2023/03/12 11:18:26;;;;;;;6.43;2.00;;;7.90;95.60;;;;;;5114333;28;20535;-51
2023/03/12 11:20:56;;;;;;;4.83;2.30;;;8.30;95.00;;;;;;5114519;28;20451;-51
2023/03/12 11:23:27;;;;;;;5.70;2.37;;;8.30;95.10;;;;;;5114963;28;20979;-52
2023/03/12 11:26:00;;;;;;;3.00;1.87;;;8.30;94.90;;;;;;5114429;28;20956;-52
2023/03/12 11:28:36;;;;;;;4.10;3.13;;;7.70;94.40;;;;;;5114191;28;20525;-51
2023/03/12 11:31:05;;;;;;;5.73;3.07;;;8.50;95.10;;;;;;5114308;28;20432;-52
2023/03/12 11:33:31;;;;;;;7.60;3.03;;;8.60;94.80;;;;;;5113965;28;20460;-52
2023/03/12 11:36:12;;;;;;;13.80;4.07;;;8.20;94.00;;;;;;5114006;28;20410;-51
2023/03/12 11:38:43;;;;;;;7.63;3.33;;;8.50;94.00;;;;;;5114143;28;20406;-51
2023/03/12 11:41:24;;;;;;;7.30;3.83;;;8.20;93.70;;;;;;5113777;28;21008;-51
2023/03/12 11:44:01;;;;;;;10.73;2.80;;;8.40;93.90;;;;;;5114154;28;20444;-52
2023/03/12 11:46:41;;;;;;;7.33;3.80;;;9.20;94.00;;;;;;5113017;28;20481;-51
2023/03/12 11:49:24;;;;;;;5.87;3.40;;;8.50;93.10;;;;;;5114105;28;20407;-51
2023/03/12 11:52:01;;;;;;;8.80;3.53;;;8.90;92.10;;;;;;5114183;28;20413;-51
2023/03/12 11:54:52;;;;;;;5.03;2.93;;;8.50;91.90;;;;;;5113886;28;20949;-53
2023/03/12 11:57:28;;;;;;;5.90;2.93;;;8.70;91.30;;;;;;5113409;28;20505;-52
2023/03/12 12:00:11;;;;;;;8.97;4.70;;;8.80;91.80;;;;;;5113354;28;20438;-51
2023/03/12 12:03:01;;;;;;;7.43;3.13;;;8.50;91.40;;;;;;5113822;28;20926;-51
2023/03/12 12:05:38;;;;;;;6.90;3.80;;;8.80;89.90;;;;;;5113323;28;20929;-50
2023/03/12 12:08:33;;;;;;;19.30;4.80;;;8.80;89.60;;;;;;5113371;28;20454;-50
2023/03/12 12:11:06;;;;;;;5.10;3.07;;;9.30;89.00;;;;;;5113632;28;20428;-53
2023/03/12 12:13:43;;;;;;;7.40;3.97;;;8.80;88.80;;;;;;5112381;28;20445;-51
2023/03/12 12:16:35;;;;;;;3.77;3.00;;;9.50;89.10;;;;;;5113596;28;20398;-52
2023/03/12 12:19:12;;;;;;;5.90;2.90;;;9.20;87.70;;;;;;5112790;28;20451;-51
2023/03/12 12:21:52;;;;;;;8.00;3.60;;;9.10;85.90;;;;;;5113587;28;20410;-52
2023/03/12 12:24:36;;;;;;;5.00;3.47;;;9.20;85.10;;;;;;5113132;28;20438;-52
2023/03/12 12:27:11;;;;;;;8.07;3.57;;;8.60;81.60;;;;;;5113188;28;20993;-53
2023/03/12 12:29:57;;;;;;;4.10;2.67;;;9.60;81.20;;;;;;5113055;28;20424;-51
2023/03/12 12:32:36;;;;;;;6.67;2.50;;;9.20;79.90;;;;;;5113572;28;20897;-51
2023/03/12 12:35:15;;;;;;;4.30;2.83;;;9.60;80.30;;;;;;5113334;28;20513;-53
2023/03/12 12:37:52;;;;;;;8.83;4.30;;;9.00;75.40;;;;;;5113373;28;20943;-51
2023/03/12 12:40:25;;;;;;;6.03;2.70;;;9.20;75.30;;;;;;5112574;28;20431;-51
2023/03/12 12:43:01;;;;;;;4.67;4.03;;;9.10;73.90;;;;;;5112848;28;20816;-53
2023/03/12 12:45:28;;;;;;;6.07;2.80;;;9.30;73.50;;;;;;5113064;28;20409;-50
2023/03/12 12:47:58;;;;;;;6.03;3.07;;;8.80;72.50;;;;;;5112776;28;20802;-51
2023/03/12 12:50:29;;;;;;;3.30;2.53;;;9.20;71.60;;;;;;5112121;28;20443;-51
2023/03/12 12:53:03;;;;;;;6.90;3.33;;;9.10;72.20;;;;;;5112571;28;20513;-51
2023/03/12 12:55:36;;;;;;;10.07;3.10;;;9.30;70.90;;;;;;5112300;28;20896;-52
2023/03/12 12:58:08;;;;;;;6.70;3.50;;;9.20;70.00;;;;;;5112466;28;20432;-52
2023/03/12 13:00:47;;;;;;;6.00;2.77;;;9.30;69.50;;;;;;5112463;28;20971;-52
2023/03/12 13:03:17;;;;;;;6.53;3.20;;;9.20;69.30;;;;;;5110953;28;20446;-53
2023/03/12 13:05:56;;;;;;;5.67;2.53;;;9.20;66.60;;;;;;5112577;28;20463;-52
2023/03/12 13:09:01;;;;;;;6.33;3.13;;;9.00;66.40;;;;;;5112255;28;20454;-52